createdAt,value
2016-04-07T00:00:38.104Z,35.69
2016-04-07T00:01:41.308Z,35.88
2016-04-07T00:02:38.045Z,35.69
2016-04-07T00:03:37.970Z,35.69
2016-04-07T00:04:37.926Z,35.88
2016-04-07T00:05:37.913Z,35.59
2016-04-07T00:06:37.900Z,35.59
2016-04-07T00:07:37.638Z,35.69
2016-04-07T00:08:40.766Z,35.69
2016-04-07T00:09:37.689Z,35.69
2016-04-07T00:10:37.849Z,35.59
2016-04-07T00:11:37.602Z,35.4
2016-04-07T00:12:37.542Z,35.4
2016-04-07T00:13:37.529Z,35.69
2016-04-07T00:14:37.672Z,35.69
2016-04-07T00:15:37.612Z,35.49
2016-04-07T00:16:43.404Z,35.49
2016-04-07T00:17:37.389Z,35.69
2016-04-07T00:18:37.592Z,35.59
2016-04-07T00:19:37.373Z,35.59
2016-04-07T00:20:37.374Z,35.69
2016-04-07T00:21:37.358Z,35.59
2016-04-07T00:22:37.330Z,35.59
2016-04-07T00:23:40.317Z,35.59
2016-04-07T00:24:37.475Z,35.4
2016-04-07T00:25:43.260Z,35.49
2016-04-07T00:26:37.210Z,35.59
2016-04-07T00:27:37.359Z,35.59
2016-04-07T00:28:37.148Z,35.59
2016-04-07T00:29:40.064Z,35.59
2016-04-07T00:30:37.025Z,35.59
2016-04-07T00:31:36.985Z,35.59
2016-04-07T00:32:36.943Z,35.59
2016-04-07T00:33:36.900Z,35.59
2016-04-07T00:34:36.841Z,35.49
2016-04-07T00:35:36.815Z,35.49
2016-04-07T00:36:36.772Z,35.69
2016-04-07T00:37:36.729Z,35.59
2016-04-07T00:38:36.686Z,35.59
2016-04-07T00:39:36.643Z,35.49
2016-04-07T00:40:36.771Z,35.4
2016-04-07T00:41:36.540Z,35.59
2016-04-07T00:42:36.495Z,35.69
2016-04-07T00:43:36.437Z,35.59
2016-04-07T00:44:36.393Z,35.49
2016-04-07T00:45:36.348Z,35.59
2016-04-07T00:46:36.493Z,35.49
2016-04-07T00:47:36.260Z,35.59
2016-04-07T00:48:36.200Z,35.59
2016-04-07T00:49:36.156Z,35.59
2016-04-07T00:50:36.112Z,35.59
2016-04-07T00:51:36.271Z,35.49
2016-04-07T00:52:36.023Z,35.69
2016-04-07T00:53:35.964Z,35.59
2016-04-07T00:54:35.936Z,35.49
2016-04-07T00:55:35.876Z,35.59
2016-04-07T00:56:35.831Z,35.49
2016-04-07T00:57:35.787Z,35.49
2016-04-07T00:58:35.744Z,35.59
2016-04-07T00:59:35.683Z,35.59
2016-04-07T01:00:35.639Z,35.59
2016-04-07T01:01:35.595Z,35.4
2016-04-07T01:02:35.551Z,35.59
2016-04-07T01:03:35.491Z,35.69
2016-04-07T01:04:38.478Z,35.21
2016-04-07T01:05:38.403Z,35.11
2016-04-07T01:06:38.391Z,35.59
2016-04-07T01:07:41.533Z,35.11
2016-04-07T01:08:38.302Z,35.3
2016-04-07T01:09:35.227Z,35.11
2016-04-07T01:10:35.166Z,35.02
2016-04-07T01:11:35.325Z,35.11
2016-04-07T01:12:35.078Z,35.21
2016-04-07T01:13:35.018Z,35.11
2016-04-07T01:14:34.974Z,35.21
2016-04-07T01:15:34.946Z,35.11
2016-04-07T01:16:34.885Z,35.02
2016-04-07T01:17:34.840Z,35.59
2016-04-07T01:18:34.797Z,35.21
2016-04-07T01:19:34.800Z,34.92
2016-04-07T01:20:34.693Z,34.82
2016-04-07T01:21:34.649Z,34.82
2016-04-07T01:22:34.604Z,35.11
2016-04-07T01:23:37.561Z,34.92
2016-04-07T01:24:34.531Z,34.92
2016-04-07T01:25:34.472Z,34.92
2016-04-07T01:26:34.412Z,34.92
2016-04-07T01:27:37.384Z,34.82
2016-04-07T01:28:34.324Z,35.49
2016-04-07T01:29:34.264Z,34.82
2016-04-07T01:30:34.236Z,35.4
2016-04-07T01:31:34.191Z,35.4
2016-04-07T01:32:37.131Z,34.92
2016-04-07T01:33:34.088Z,35.02
2016-04-07T01:34:34.043Z,34.82
2016-04-07T01:35:33.999Z,34.82
2016-04-07T01:36:33.939Z,34.92
2016-04-07T01:37:33.895Z,35.49
2016-04-07T01:38:33.883Z,35.11
2016-04-07T01:39:33.807Z,35.11
2016-04-07T01:40:33.778Z,35.02
2016-04-07T01:41:33.718Z,35.02
2016-04-07T01:42:33.674Z,35.02
2016-04-07T01:43:33.615Z,34.82
2016-04-07T01:44:33.571Z,34.73
2016-04-07T01:45:33.526Z,35.49
2016-04-07T01:46:33.482Z,35.21
2016-04-07T01:47:36.453Z,34.92
2016-04-07T01:48:33.393Z,34.92
2016-04-07T01:49:33.334Z,34.63
2016-04-07T01:50:33.337Z,35.11
2016-04-07T01:51:33.261Z,35.02
2016-04-07T01:52:33.232Z,35.49
2016-04-07T01:53:33.173Z,34.73
2016-04-07T01:54:33.112Z,35.11
2016-04-07T01:55:33.068Z,35.11
2016-04-07T01:56:36.025Z,34.92
2016-04-07T01:57:36.167Z,35.11
2016-04-07T01:58:32.905Z,35.02
2016-04-07T01:59:32.860Z,34.92
2016-04-07T02:00:32.816Z,35.02
2016-04-07T02:01:32.803Z,34.92
2016-04-07T02:02:32.728Z,34.92
2016-04-07T02:03:32.683Z,34.92
2016-04-07T02:04:32.624Z,35.02
2016-04-07T02:05:32.580Z,34.82
2016-04-07T02:06:32.551Z,35.02
2016-04-07T02:07:32.491Z,34.92
2016-04-07T02:08:32.463Z,34.82
2016-04-07T02:09:32.388Z,34.73
2016-04-07T02:10:32.406Z,34.73
2016-04-07T02:11:32.299Z,34.73
2016-04-07T02:12:35.254Z,34.92
2016-04-07T02:13:32.430Z,34.82
2016-04-07T02:14:32.166Z,34.82
2016-04-07T02:15:32.107Z,34.63
2016-04-07T02:16:32.063Z,34.82
2016-04-07T02:17:32.018Z,34.82
2016-04-07T02:18:31.974Z,34.63
2016-04-07T02:19:34.930Z,34.63
2016-04-07T02:20:31.870Z,34.63
2016-04-07T02:21:31.826Z,34.63
2016-04-07T02:22:31.798Z,34.63
2016-04-07T02:23:31.737Z,34.63
2016-04-07T02:24:31.693Z,34.73
2016-04-07T02:25:31.774Z,34.53
2016-04-07T02:26:31.590Z,34.73
2016-04-07T02:27:34.561Z,34.53
2016-04-07T02:28:31.501Z,34.73
2016-04-07T02:29:31.473Z,34.63
2016-04-07T02:30:31.429Z,34.63
2016-04-07T02:31:31.353Z,34.73
2016-04-07T02:32:31.308Z,34.73
2016-04-07T02:33:31.264Z,34.73
2016-04-07T02:34:31.205Z,34.73
2016-04-07T02:35:34.176Z,34.44
2016-04-07T02:36:31.117Z,34.53
2016-04-07T02:37:31.072Z,34.53
2016-04-07T02:38:31.027Z,34.73
2016-04-07T02:39:40.015Z,34.73
2016-04-07T02:40:30.924Z,34.53
2016-04-07T02:41:30.879Z,34.44
2016-04-07T02:42:30.835Z,34.34
2016-04-07T02:43:30.822Z,34.34
2016-04-07T02:44:33.763Z,34.34
2016-04-07T02:45:30.718Z,34.44
2016-04-07T02:46:33.659Z,34.34
2016-04-07T02:47:30.599Z,34.44
2016-04-07T02:48:30.571Z,34.34
2016-04-07T02:49:30.510Z,34.34
2016-04-07T02:50:30.513Z,34.34
2016-04-07T02:51:30.423Z,34.53
2016-04-07T02:52:30.393Z,34.34
2016-04-07T02:53:33.349Z,34.34
2016-04-07T02:54:33.321Z,34.44
2016-04-07T02:55:30.434Z,34.34
2016-04-07T02:56:30.186Z,34.34
2016-04-07T02:57:30.126Z,34.34
2016-04-07T02:58:30.097Z,34.34
2016-04-07T02:59:30.365Z,34.44
2016-04-07T03:00:29.993Z,34.34
2016-04-07T03:01:29.950Z,34.34
2016-04-07T03:02:29.905Z,34.44
2016-04-07T03:03:29.861Z,34.34
2016-04-07T03:04:29.801Z,34.44
2016-04-07T03:05:29.757Z,34.34
2016-04-07T03:06:29.713Z,34.34
2016-04-07T03:07:29.669Z,34.34
2016-04-07T03:08:29.625Z,34.34
2016-04-07T03:09:29.580Z,34.34
2016-04-07T03:10:29.520Z,34.34
2016-04-07T03:11:35.477Z,34.34
2016-04-07T03:12:29.464Z,34.25
2016-04-07T03:13:29.387Z,34.44
2016-04-07T03:14:29.390Z,34.44
2016-04-07T03:15:29.299Z,34.34
2016-04-07T03:16:29.240Z,34.44
2016-04-07T03:17:29.195Z,34.44
2016-04-07T03:18:32.354Z,34.44
2016-04-07T03:19:32.106Z,34.44
2016-04-07T03:20:29.047Z,34.53
2016-04-07T03:21:29.003Z,34.53
2016-04-07T03:22:28.959Z,34.44
2016-04-07T03:23:28.945Z,34.53
2016-04-07T03:24:31.886Z,34.53
2016-04-07T03:25:31.842Z,34.53
2016-04-07T03:26:34.782Z,34.53
2016-04-07T03:27:28.722Z,34.53
2016-04-07T03:28:31.693Z,34.44
2016-04-07T03:29:28.634Z,34.06
2016-04-07T03:30:28.589Z,34.15
2016-04-07T03:31:28.530Z,34.25
2016-04-07T03:32:28.486Z,34.15
2016-04-07T03:33:28.739Z,34.15
2016-04-07T03:34:31.413Z,34.25
2016-04-07T03:35:31.353Z,33.96
2016-04-07T03:36:28.294Z,34.06
2016-04-07T03:37:28.265Z,33.86
2016-04-07T03:38:28.205Z,34.53
2016-04-07T03:39:28.411Z,34.53
2016-04-07T03:40:28.180Z,34.15
2016-04-07T03:41:28.963Z,34.06
2016-04-07T03:42:28.044Z,34.06
2016-04-07T03:43:27.983Z,34.06
2016-04-07T03:44:27.941Z,34.15
2016-04-07T03:45:27.896Z,34.15
2016-04-07T03:46:30.836Z,34.15
2016-04-07T03:47:27.792Z,34.15
2016-04-07T03:48:27.746Z,34.15
2016-04-07T03:49:27.687Z,34.06
2016-04-07T03:50:27.846Z,34.15
2016-04-07T03:51:27.630Z,34.15
2016-04-07T03:52:27.539Z,34.15
2016-04-07T03:53:30.511Z,34.15
2016-04-07T03:54:27.483Z,34.15
2016-04-07T03:55:27.407Z,34.25
2016-04-07T03:56:27.362Z,34.15
2016-04-07T03:57:27.318Z,34.25
2016-04-07T03:58:27.274Z,34.25
2016-04-07T03:59:27.230Z,34.34
2016-04-07T04:00:27.186Z,34.25
2016-04-07T04:01:30.142Z,34.06
2016-04-07T04:02:30.081Z,34.25
2016-04-07T04:03:27.037Z,34.15
2016-04-07T04:04:26.994Z,34.15
2016-04-07T04:05:26.934Z,34.34
2016-04-07T04:06:26.889Z,34.15
2016-04-07T04:07:26.861Z,33.96
2016-04-07T04:08:26.786Z,34.15
2016-04-07T04:09:26.742Z,34.15
2016-04-07T04:10:26.697Z,34.25
2016-04-07T04:11:26.856Z,34.15
2016-04-07T04:12:26.609Z,34.06
2016-04-07T04:13:26.549Z,34.15
2016-04-07T04:14:26.521Z,34.25
2016-04-07T04:15:26.477Z,34.25
2016-04-07T04:16:29.432Z,34.25
2016-04-07T04:17:29.372Z,34.15
2016-04-07T04:18:26.328Z,34.15
2016-04-07T04:19:26.285Z,34.15
2016-04-07T04:20:26.427Z,34.34
2016-04-07T04:21:26.211Z,34.34
2016-04-07T04:22:26.121Z,34.25
2016-04-07T04:23:29.091Z,34.25
2016-04-07T04:24:26.048Z,34.15
2016-04-07T04:25:26.004Z,34.34
2016-04-07T04:26:25.959Z,34.25
2016-04-07T04:27:28.915Z,34.15
2016-04-07T04:28:25.871Z,34.25
2016-04-07T04:29:25.796Z,34.25
2016-04-07T04:30:25.750Z,34.25
2016-04-07T04:31:25.722Z,34.15
2016-04-07T04:32:25.662Z,34.15
2016-04-07T04:33:25.618Z,33.86
2016-04-07T04:34:25.559Z,34.15
2016-04-07T04:35:25.530Z,34.25
2016-04-07T04:36:25.470Z,34.15
2016-04-07T04:37:25.441Z,34.15
2016-04-07T04:38:25.381Z,33.96
2016-04-07T04:39:25.338Z,34.06
2016-04-07T04:40:25.309Z,33.96
2016-04-07T04:41:25.234Z,33.96
2016-04-07T04:42:25.205Z,33.67
2016-04-07T04:43:25.144Z,33.96
2016-04-07T04:44:25.101Z,33.96
2016-04-07T04:45:25.057Z,33.86
2016-04-07T04:46:25.013Z,33.96
2016-04-07T04:47:25.280Z,33.48
2016-04-07T04:48:34.127Z,33.67
2016-04-07T04:49:27.880Z,33.96
2016-04-07T04:50:25.024Z,33.67
2016-04-07T04:51:24.776Z,33.67
2016-04-07T04:52:24.716Z,33.48
2016-04-07T04:53:24.672Z,33.67
2016-04-07T04:54:24.644Z,33.86
2016-04-07T04:55:24.568Z,33.58
2016-04-07T04:56:24.540Z,33.48
2016-04-07T04:57:24.496Z,33.67
2016-04-07T04:58:24.435Z,33.48
2016-04-07T04:59:24.595Z,33.67
2016-04-07T05:00:24.331Z,33.48
2016-04-07T05:01:27.506Z,33.86
2016-04-07T05:02:24.243Z,33.48
2016-04-07T05:03:24.215Z,33.67
2016-04-07T05:04:24.155Z,33.86
2016-04-07T05:05:24.111Z,33.77
2016-04-07T05:06:24.051Z,33.58
2016-04-07T05:07:24.023Z,33.58
2016-04-07T05:08:23.962Z,33.48
2016-04-07T05:09:23.762Z,33.48
2016-04-07T05:10:23.874Z,33.67
2016-04-07T05:11:23.830Z,33.39
2016-04-07T05:12:23.802Z,33.48
2016-04-07T05:13:23.741Z,33.39
2016-04-07T05:14:23.683Z,33.58
2016-04-07T05:15:23.638Z,33.48
2016-04-07T05:16:23.609Z,33.09
2016-04-07T05:17:23.549Z,33.48
2016-04-07T05:18:23.708Z,33
2016-04-07T05:19:23.461Z,33.39
2016-04-07T05:20:23.401Z,33.39
2016-04-07T05:21:23.357Z,33.48
2016-04-07T05:22:23.313Z,33.77
2016-04-07T05:23:26.268Z,33.48
2016-04-07T05:24:23.240Z,33.67
2016-04-07T05:25:23.195Z,33.09
2016-04-07T05:26:23.182Z,33.19
2016-04-07T05:27:23.092Z,33.48
2016-04-07T05:28:23.016Z,33.48
2016-04-07T05:29:22.988Z,33.48
2016-04-07T05:30:26.131Z,33.19
2016-04-07T05:31:22.884Z,33.67
2016-04-07T05:32:22.839Z,33.58
2016-04-07T05:33:22.795Z,33.67
2016-04-07T05:34:22.736Z,33.48
2016-04-07T05:35:22.895Z,33.29
2016-04-07T05:36:22.647Z,33.58
2016-04-07T05:37:25.603Z,33.19
2016-04-07T05:38:22.559Z,33.48
2016-04-07T05:39:22.515Z,33
2016-04-07T05:40:25.455Z,33.48
2016-04-07T05:41:22.411Z,33.58
2016-04-07T05:42:22.397Z,33.48
2016-04-07T05:43:22.338Z,33.09
2016-04-07T05:44:22.122Z,33
2016-04-07T05:45:22.219Z,33.58
2016-04-07T05:46:25.174Z,33.09
2016-04-07T05:47:22.333Z,33.58
2016-04-07T05:48:22.102Z,33.29
2016-04-07T05:49:22.042Z,33.58
2016-04-07T05:50:21.997Z,33.48
2016-04-07T05:51:21.953Z,33
2016-04-07T05:52:21.894Z,33.19
2016-04-07T05:53:21.865Z,33.29
2016-04-07T05:54:21.868Z,33.29
2016-04-07T05:55:27.964Z,33.67
2016-04-07T05:56:24.717Z,33.58
2016-04-07T05:57:21.657Z,33.67
2016-04-07T05:58:24.643Z,33.77
2016-04-07T05:59:21.568Z,33.48
2016-04-07T06:00:21.509Z,33.67
2016-04-07T06:01:21.683Z,33.58
2016-04-07T06:02:21.420Z,33.67
2016-04-07T06:03:21.376Z,33.86
2016-04-07T06:04:21.332Z,33.48
2016-04-07T06:05:27.303Z,33.77
2016-04-07T06:06:24.259Z,33.29
2016-04-07T06:07:21.199Z,33.58
2016-04-07T06:08:21.128Z,33.39
2016-04-07T06:09:21.131Z,33.77
2016-04-07T06:10:21.041Z,33.19
2016-04-07T06:11:21.012Z,33.86
2016-04-07T06:12:20.952Z,33.58
2016-04-07T06:13:20.892Z,33.48
2016-04-07T06:14:20.864Z,33.86
2016-04-07T06:15:20.804Z,33.67
2016-04-07T06:16:20.760Z,33.67
2016-04-07T06:17:20.716Z,33.39
2016-04-07T06:18:20.687Z,33.48
2016-04-07T06:19:20.611Z,33.58
2016-04-07T06:20:20.583Z,33.58
2016-04-07T06:21:20.571Z,33.48
2016-04-07T06:22:20.494Z,33.86
2016-04-07T06:23:23.451Z,33.86
2016-04-07T06:24:20.390Z,33.39
2016-04-07T06:25:23.424Z,33.77
2016-04-07T06:26:29.301Z,33.48
2016-04-07T06:27:26.507Z,33.29
2016-04-07T06:28:20.214Z,33.48
2016-04-07T06:29:20.154Z,33.29
2016-04-07T06:30:20.109Z,33.39
2016-04-07T06:31:20.065Z,33.39
2016-04-07T06:32:20.006Z,33.39
2016-04-07T06:33:19.961Z,33.48
2016-04-07T06:34:19.948Z,33.29
2016-04-07T06:35:19.873Z,33.39
2016-04-07T06:36:19.829Z,33.48
2016-04-07T06:37:19.769Z,33.48
2016-04-07T06:38:22.741Z,33.48
2016-04-07T06:39:25.586Z,33.77
2016-04-07T06:40:19.637Z,33.58
2016-04-07T06:41:19.577Z,33.29
2016-04-07T06:42:19.548Z,33.67
2016-04-07T06:43:19.489Z,33.67
2016-04-07T06:44:22.445Z,33.48
2016-04-07T06:45:22.416Z,33.39
2016-04-07T06:46:19.355Z,33.67
2016-04-07T06:47:19.296Z,33.86
2016-04-07T06:48:19.252Z,33.67
2016-04-07T06:49:19.255Z,33.67
2016-04-07T06:50:19.164Z,33.48
2016-04-07T06:51:19.119Z,33.58
2016-04-07T06:52:19.060Z,33.67
2016-04-07T06:53:19.234Z,33.67
2016-04-07T06:54:19.112Z,33.67
2016-04-07T06:55:19.129Z,33.67
2016-04-07T06:56:18.882Z,33.77
2016-04-07T06:57:18.854Z,33.77
2016-04-07T06:58:18.795Z,33.58
2016-04-07T06:59:18.751Z,33.67
2016-04-07T07:00:18.784Z,33.67
2016-04-07T07:01:18.662Z,33.67
2016-04-07T07:02:18.617Z,33.48
2016-04-07T07:03:18.589Z,33.77
2016-04-07T07:04:18.514Z,33.67
2016-04-07T07:05:18.673Z,33.67
2016-04-07T07:06:18.551Z,33.58
2016-04-07T07:07:18.397Z,33.39
2016-04-07T07:08:18.368Z,33.58
2016-04-07T07:09:18.371Z,33.39
2016-04-07T07:10:18.233Z,33.67
2016-04-07T07:11:18.205Z,33.86
2016-04-07T07:12:18.332Z,33.67
2016-04-07T07:13:18.163Z,33.39
2016-04-07T07:14:18.072Z,33.67
2016-04-07T07:15:18.012Z,33.48
2016-04-07T07:16:21.219Z,33.58
2016-04-07T07:17:17.939Z,33.48
2016-04-07T07:18:17.895Z,33.77
2016-04-07T07:19:17.819Z,33.67
2016-04-07T07:20:20.807Z,33.86
2016-04-07T07:21:17.716Z,33.48
2016-04-07T07:22:17.827Z,33.39
2016-04-07T07:23:17.627Z,33.48
2016-04-07T07:24:17.598Z,33.77
2016-04-07T07:25:17.538Z,33.39
2016-04-07T07:26:17.510Z,33.39
2016-04-07T07:27:23.466Z,33.48
2016-04-07T07:28:17.704Z,33.39
2016-04-07T07:29:17.346Z,33.86
2016-04-07T07:30:17.318Z,33.77
2016-04-07T07:31:17.336Z,33.19
2016-04-07T07:32:17.074Z,33.67
2016-04-07T07:33:20.082Z,33.67
2016-04-07T07:34:17.099Z,33.67
2016-04-07T07:35:17.056Z,33.77
2016-04-07T07:36:17.012Z,33.58
2016-04-07T07:37:16.968Z,33.67
2016-04-07T07:38:16.924Z,33.67
2016-04-07T07:39:16.895Z,33.58
2016-04-07T07:40:17.012Z,33.67
2016-04-07T07:41:16.780Z,33.29
2016-04-07T07:42:16.830Z,33.48
2016-04-07T07:43:17.098Z,33.39
2016-04-07T07:44:16.647Z,33.29
2016-04-07T07:45:16.619Z,33.67
2016-04-07T07:46:16.731Z,33.48
2016-04-07T07:47:16.500Z,33.39
2016-04-07T07:48:16.347Z,33.86
2016-04-07T07:49:16.520Z,33.48
2016-04-07T07:50:16.352Z,33.48
2016-04-07T07:51:16.400Z,33.67
2016-04-07T07:52:16.278Z,33.77
2016-04-07T07:53:16.218Z,33.67
2016-04-07T07:54:16.268Z,33.48
2016-04-07T07:55:16.177Z,33.39
2016-04-07T07:56:16.085Z,33.67
2016-04-07T07:57:16.041Z,33.19
2016-04-07T07:58:15.888Z,33.19
2016-04-07T07:59:15.954Z,33.39
2016-04-07T08:00:15.738Z,33.39
2016-04-07T08:01:15.943Z,33.29
2016-04-07T08:02:15.884Z,33.29
2016-04-07T08:03:15.933Z,33.09
2016-04-07T08:04:15.685Z,33
2016-04-07T08:05:15.688Z,33.39
2016-04-07T08:06:15.690Z,33.67
2016-04-07T08:07:15.615Z,33.58
2016-04-07T08:08:15.540Z,33.58
2016-04-07T08:09:15.481Z,33
2016-04-07T08:10:15.765Z,33.29
2016-04-07T08:11:15.392Z,33.58
2016-04-07T08:12:15.426Z,33.48
2016-04-07T08:13:15.288Z,33.29
2016-04-07T08:14:15.228Z,33.48
2016-04-07T08:15:15.247Z,33.09
2016-04-07T08:16:15.203Z,33.48
2016-04-07T08:17:15.081Z,33.48
2016-04-07T08:18:15.083Z,33.48
2016-04-07T08:19:14.992Z,33
2016-04-07T08:20:14.963Z,33.48
2016-04-07T08:21:14.966Z,33.67
2016-04-07T08:22:14.938Z,33.48
2016-04-07T08:23:14.830Z,33.58
2016-04-07T08:24:14.786Z,33.67
2016-04-07T08:25:14.710Z,33.67
2016-04-07T08:26:14.713Z,33.77
2016-04-07T08:27:14.622Z,33.39
2016-04-07T08:28:14.563Z,33.58
2016-04-07T08:29:14.816Z,33.39
2016-04-07T08:30:14.475Z,33.48
2016-04-07T08:31:17.993Z,33.67
2016-04-07T08:32:14.386Z,33.09
2016-04-07T08:33:14.342Z,33
2016-04-07T08:34:14.298Z,33.77
2016-04-07T08:35:14.331Z,33.67
2016-04-07T08:36:14.217Z,33.29
2016-04-07T08:37:14.167Z,33.09
2016-04-07T08:38:14.122Z,33.09
2016-04-07T08:39:14.094Z,33.19
2016-04-07T08:40:14.018Z,33
2016-04-07T08:41:13.974Z,32.81
2016-04-07T08:42:16.913Z,32.62
2016-04-07T08:43:13.854Z,32.42
2016-04-07T08:44:13.872Z,32.52
2016-04-07T08:45:14.469Z,32.52
2016-04-07T08:46:13.800Z,32.62
2016-04-07T08:47:13.662Z,32.33
2016-04-07T08:48:13.680Z,32.23
2016-04-07T08:49:13.589Z,32.23
2016-04-07T08:50:16.826Z,32.04
2016-04-07T08:51:13.500Z,31.95
2016-04-07T08:52:13.456Z,31.95
2016-04-07T08:53:13.631Z,31.85
2016-04-07T08:54:13.368Z,31.85
2016-04-07T08:55:16.542Z,31.85
2016-04-07T08:56:16.264Z,31.95
2016-04-07T08:57:13.251Z,31.95
2016-04-07T08:58:13.206Z,31.56
2016-04-07T08:59:16.178Z,31.85
2016-04-07T09:00:13.150Z,31.66
2016-04-07T09:01:13.168Z,31.46
2016-04-07T09:02:12.968Z,31.66
2016-04-07T09:03:12.908Z,31.27
2016-04-07T09:04:12.926Z,31.27
2016-04-07T09:05:12.819Z,31.27
2016-04-07T09:06:12.978Z,31.37
2016-04-07T09:07:12.746Z,31.18
2016-04-07T09:08:12.686Z,31.18
2016-04-07T09:09:12.643Z,31.18
2016-04-07T09:10:12.599Z,31.18
2016-04-07T09:11:12.632Z,31.08
2016-04-07T09:12:12.511Z,30.89
2016-04-07T09:13:12.513Z,30.99
2016-04-07T09:14:12.407Z,30.79
2016-04-07T09:15:12.409Z,30.89
2016-04-07T09:16:12.302Z,30.89
2016-04-07T09:17:12.321Z,30.89
2016-04-07T09:18:12.276Z,30.89
2016-04-07T09:19:12.185Z,30.79
2016-04-07T09:20:12.125Z,30.89
2016-04-07T09:21:12.207Z,30.51
2016-04-07T09:22:12.092Z,30.7
2016-04-07T09:23:12.053Z,30.6
2016-04-07T09:24:12.061Z,30.51
2016-04-07T09:25:12.178Z,30.22
2016-04-07T09:26:12.014Z,30.7
2016-04-07T09:27:11.975Z,30.6
2016-04-07T09:28:11.977Z,30.7
2016-04-07T09:29:11.992Z,30.51
2016-04-07T09:30:11.883Z,30.79
2016-04-07T09:31:11.883Z,30.6
2016-04-07T09:32:11.784Z,30.7
2016-04-07T09:33:11.822Z,30.6
2016-04-07T09:34:12.032Z,30.6
2016-04-07T09:35:11.711Z,30.51
2016-04-07T09:36:11.641Z,30.79
2016-04-07T09:37:11.583Z,30.7
2016-04-07T09:38:11.557Z,30.6
2016-04-07T09:39:11.515Z,30.7
2016-04-07T09:40:11.442Z,30.51
2016-04-07T09:41:11.415Z,30.51
2016-04-07T09:42:11.372Z,30.32
2016-04-07T09:43:11.312Z,30.6
2016-04-07T09:44:11.129Z,30.6
2016-04-07T09:45:11.241Z,30.6
2016-04-07T09:46:11.244Z,30.32
2016-04-07T09:47:11.169Z,30.12
2016-04-07T09:48:11.735Z,30.41
2016-04-07T09:49:11.050Z,30.22
2016-04-07T09:50:11.022Z,30.32
2016-04-07T09:51:11.102Z,30.51
2016-04-07T09:52:10.918Z,30.22
2016-04-07T09:53:10.873Z,30.6
2016-04-07T09:54:10.860Z,30.22
2016-04-07T09:55:10.722Z,30.12
2016-04-07T09:56:10.757Z,30.6
2016-04-07T09:57:10.665Z,30.6
2016-04-07T09:58:10.637Z,30.6
2016-04-07T09:59:10.562Z,30.41
2016-04-07T10:00:10.564Z,30.7
2016-04-07T10:01:10.473Z,30.6
2016-04-07T10:02:10.506Z,30.6
2016-04-07T10:03:10.447Z,30.02
2016-04-07T10:04:10.387Z,30.22
2016-04-07T10:05:10.296Z,30.12
2016-04-07T10:06:10.252Z,30.41
2016-04-07T10:07:10.255Z,30.32
2016-04-07T10:08:10.163Z,30.22
2016-04-07T10:09:10.134Z,30.32
2016-04-07T10:10:10.153Z,30.02
2016-04-07T10:11:10.015Z,30.12
2016-04-07T10:12:09.955Z,30.02
2016-04-07T10:13:09.958Z,30.12
2016-04-07T10:14:09.883Z,30.41
2016-04-07T10:15:09.932Z,30.12
2016-04-07T10:16:12.764Z,30.32
2016-04-07T10:17:12.797Z,30.02
2016-04-07T10:18:09.691Z,30.12
2016-04-07T10:19:09.850Z,30.02
2016-04-07T10:20:09.618Z,30.02
2016-04-07T10:21:13.230Z,30.32
2016-04-07T10:22:09.529Z,29.93
2016-04-07T10:23:09.533Z,30.02
2016-04-07T10:24:09.410Z,30.12
2016-04-07T10:25:09.413Z,29.83
2016-04-07T10:26:09.416Z,29.93
2016-04-07T10:27:09.262Z,29.83
2016-04-07T10:28:09.249Z,30.02
2016-04-07T10:29:09.173Z,30.32
2016-04-07T10:30:09.129Z,30.22
2016-04-07T10:31:09.053Z,29.83
2016-04-07T10:32:09.025Z,30.12
2016-04-07T10:33:09.184Z,30.02
2016-04-07T10:34:08.921Z,30.12
2016-04-07T10:35:08.784Z,30.32
2016-04-07T10:36:08.832Z,29.93
2016-04-07T10:37:08.804Z,30.02
2016-04-07T10:38:08.712Z,30.02
2016-04-07T10:39:08.669Z,29.93
2016-04-07T10:40:08.655Z,29.83
2016-04-07T10:41:08.642Z,30.02
2016-04-07T10:42:08.583Z,29.64
2016-04-07T10:43:08.523Z,29.93
2016-04-07T10:44:08.479Z,30.12
2016-04-07T10:45:08.420Z,29.83
2016-04-07T10:46:08.359Z,29.74
2016-04-07T10:47:08.331Z,29.83
2016-04-07T10:48:08.334Z,29.83
2016-04-07T10:49:08.209Z,29.55
2016-04-07T10:50:08.180Z,29.45
2016-04-07T10:51:08.120Z,29.74
2016-04-07T10:52:08.092Z,29.55
2016-04-07T10:53:08.033Z,30.12
2016-04-07T10:54:08.003Z,29.55
2016-04-07T10:55:07.960Z,29.55
2016-04-07T10:56:07.915Z,29.55
2016-04-07T10:57:07.965Z,29.55
2016-04-07T10:58:07.796Z,29.64
2016-04-07T10:59:07.876Z,29.64
2016-04-07T11:00:07.707Z,29.45
2016-04-07T11:01:07.850Z,29.55
2016-04-07T11:02:07.634Z,29.45
2016-04-07T11:03:07.543Z,29.26
2016-04-07T11:04:07.499Z,29.26
2016-04-07T11:05:10.457Z,29.26
2016-04-07T11:06:07.410Z,29.26
2016-04-07T11:07:07.445Z,29.26
2016-04-07T11:08:07.337Z,29.06
2016-04-07T11:09:07.262Z,29.16
2016-04-07T11:10:07.327Z,29.06
2016-04-07T11:11:07.236Z,29.26
2016-04-07T11:12:07.380Z,29.06
2016-04-07T11:13:07.179Z,28.97
2016-04-07T11:14:07.042Z,29.35
2016-04-07T11:15:07.076Z,29.26
2016-04-07T11:16:06.953Z,28.88
2016-04-07T11:17:07.112Z,28.78
2016-04-07T11:18:06.849Z,29.16
2016-04-07T11:19:06.789Z,28.78
2016-04-07T11:20:06.808Z,29.06
2016-04-07T11:21:06.717Z,28.78
2016-04-07T11:22:06.720Z,28.78
2016-04-07T11:23:06.644Z,29.06
2016-04-07T11:24:06.600Z,28.78
2016-04-07T11:25:06.602Z,28.68
2016-04-07T11:26:06.496Z,28.97
2016-04-07T11:27:06.482Z,28.78
2016-04-07T11:28:06.438Z,28.78
2016-04-07T11:29:06.316Z,29.35
2016-04-07T11:30:06.288Z,29.26
2016-04-07T11:31:06.228Z,28.78
2016-04-07T11:32:06.168Z,28.78
2016-04-07T11:33:05.968Z,28.59
2016-04-07T11:34:06.111Z,28.88
2016-04-07T11:35:06.129Z,28.88
2016-04-07T11:36:06.007Z,28.97
2016-04-07T11:37:05.963Z,28.88
2016-04-07T11:38:05.903Z,28.97
2016-04-07T11:39:05.859Z,29.06
2016-04-07T11:40:06.174Z,28.97
2016-04-07T11:41:05.865Z,29.06
2016-04-07T11:42:05.726Z,29.06
2016-04-07T11:43:05.698Z,29.45
2016-04-07T11:44:08.719Z,29.35
2016-04-07T11:45:05.578Z,29.16
2016-04-07T11:46:18.193Z,28.97
2016-04-07T11:47:05.490Z,28.88
2016-04-07T11:48:06.148Z,29.16
2016-04-07T11:49:05.464Z,29.06
2016-04-07T11:50:05.592Z,28.88
2016-04-07T11:51:05.938Z,28.97
2016-04-07T11:52:05.800Z,28.49
2016-04-07T11:53:05.537Z,28.78
2016-04-07T11:54:05.196Z,28.88
2016-04-07T11:55:05.511Z,28.59
2016-04-07T11:56:05.092Z,28.78
2016-04-07T11:57:05.048Z,28.68
2016-04-07T11:58:04.972Z,28.01
2016-04-07T11:59:05.038Z,28.78
2016-04-07T12:00:04.885Z,28.49
2016-04-07T12:01:05.027Z,28.11
2016-04-07T12:02:04.968Z,28.49
2016-04-07T12:03:04.893Z,27.92
2016-04-07T12:04:04.816Z,28.39
2016-04-07T12:05:04.726Z,28.59
2016-04-07T12:06:07.697Z,28.11
2016-04-07T12:07:04.590Z,27.92
2016-04-07T12:08:06.109Z,28.01
2016-04-07T12:09:13.598Z,28.11
2016-04-07T12:10:04.692Z,28.11
2016-04-07T12:11:04.492Z,28.11
2016-04-07T12:12:04.400Z,28.39
2016-04-07T12:13:04.419Z,28.11
2016-04-07T12:14:04.562Z,28.11
2016-04-07T12:15:05.612Z,28.11
2016-04-07T12:16:04.271Z,28.2
2016-04-07T12:17:07.351Z,28.3
2016-04-07T12:18:04.104Z,28.2
2016-04-07T12:19:04.060Z,28.11
2016-04-07T12:20:11.066Z,27.72
2016-04-07T12:21:03.956Z,27.72
2016-04-07T12:22:03.943Z,27.63
2016-04-07T12:23:03.805Z,27.53
2016-04-07T12:24:04.385Z,27.53
2016-04-07T12:25:03.747Z,27.53
2016-04-07T12:26:03.735Z,27.25
2016-04-07T12:27:03.738Z,27.25
2016-04-07T12:28:03.553Z,27.25
2016-04-07T12:29:03.571Z,27.34
2016-04-07T12:30:03.527Z,27.53
2016-04-07T12:31:06.718Z,27.63
2016-04-07T12:32:03.454Z,27.34
2016-04-07T12:33:03.348Z,27.34
2016-04-07T12:34:03.350Z,27.25
2016-04-07T12:35:03.228Z,27.44
2016-04-07T12:36:03.199Z,27.25
2016-04-07T12:37:03.359Z,27.15
2016-04-07T12:38:03.408Z,27.44
2016-04-07T12:39:03.254Z,27.15
2016-04-07T12:40:06.773Z,27.44
2016-04-07T12:41:06.087Z,27.25
2016-04-07T12:42:03.184Z,27.15
2016-04-07T12:43:03.671Z,27.34
2016-04-07T12:44:03.206Z,27.15
2016-04-07T12:45:05.959Z,27.25
2016-04-07T12:46:03.054Z,26.86
2016-04-07T12:47:02.886Z,26.86
2016-04-07T12:48:02.872Z,27.15
2016-04-07T12:49:04.484Z,27.25
2016-04-07T12:50:07.564Z,27.05
2016-04-07T12:51:02.692Z,26.86
2016-04-07T12:52:02.492Z,26.95
2016-04-07T12:53:03.088Z,26.95
2016-04-07T12:54:15.328Z,26.95